Time;durP1;ratioP1;P1;durP2;ratioP2;P2;SDS_P1;SDS_P2;PMS_P1;PMS_P2;Temp;Humidity;BMP_temperature;BMP_pressure;BME280_temperature;BME280_humidity;BME280_pressure;Samples;Min_cycle;Max_cycle;Signal;HPM_P1;HPM_P2
2023/03/27 00:00:15;;;;;;;2.17;0.80;;;8.70;95.40;;;;;;10520123;28;20020;-62
2023/03/27 00:05:19;;;;;;;3.60;0.90;;;8.60;95.40;;;;;;10519634;28;20019;-63
2023/03/27 00:10:20;;;;;;;1.27;0.80;;;8.60;95.40;;;;;;10519891;28;20028;-62
2023/03/27 00:15:20;;;;;;;2.53;0.50;;;8.60;95.40;;;;;;10519565;28;20112;-62
2023/03/27 00:20:22;;;;;;;2.03;0.77;;;8.60;95.40;;;;;;10521864;28;20145;-63
2023/03/27 00:25:25;;;;;;;1.58;0.80;;;8.60;95.40;;;;;;10527307;28;20252;-63
2023/03/27 00:30:27;;;;;;;1.80;0.60;;;8.50;95.40;;;;;;10518450;28;20501;-63
2023/03/27 00:35:28;;;;;;;3.30;0.90;;;8.60;95.50;;;;;;10518714;28;20031;-61
2023/03/27 00:40:30;;;;;;;3.05;1.13;;;8.50;95.40;;;;;;10516736;28;20407;-63
2023/03/27 00:45:32;;;;;;;4.20;0.85;;;8.50;95.40;;;;;;10520732;28;20365;-62
2023/03/27 00:50:40;;;;;;;4.35;0.80;;;8.50;95.50;;;;;;10523651;28;20028;-62
2023/03/27 00:55:44;;;;;;;1.92;0.60;;;8.50;95.40;;;;;;10519742;28;20024;-61
2023/03/27 01:00:49;;;;;;;2.15;0.70;;;8.50;95.50;;;;;;10519840;28;20024;-62
2023/03/27 01:05:51;;;;;;;3.22;0.55;;;8.50;95.50;;;;;;10516752;28;20484;-61
2023/03/27 01:10:58;;;;;;;7.82;0.82;;;8.40;95.50;;;;;;10519784;28;20357;-62
2023/03/27 01:16:08;;;;;;;1.45;0.77;;;8.50;95.50;;;;;;10509564;28;20036;-62
2023/03/27 01:21:33;;;;;;;3.10;0.70;;;8.40;95.50;;;;;;10518163;28;20081;-62
2023/03/27 01:26:50;;;;;;;3.75;0.82;;;8.40;95.50;;;;;;10519674;28;20020;-62
2023/03/27 01:32:16;;;;;;;2.38;0.80;;;8.40;95.40;;;;;;10518946;28;20020;-63
2023/03/27 01:37:36;;;;;;;2.50;0.90;;;8.40;95.50;;;;;;10522379;28;20557;-63
2023/03/27 01:42:39;;;;;;;1.23;0.70;;;8.40;95.50;;;;;;10513808;28;20435;-62
2023/03/27 01:48:03;;;;;;;1.42;0.40;;;8.30;95.50;;;;;;10523093;28;20103;-62
2023/03/27 01:53:13;;;;;;;2.75;0.40;;;8.30;95.50;;;;;;10524387;28;20036;-62
2023/03/27 01:58:20;;;;;;;1.08;0.60;;;8.30;95.50;;;;;;10526190;28;20024;-63
2023/03/27 02:03:26;;;;;;;2.80;0.82;;;8.30;95.50;;;;;;10527428;28;20115;-62
2023/03/27 02:08:38;;;;;;;3.45;0.60;;;8.30;95.50;;;;;;10529927;28;20020;-61
2023/03/27 02:13:47;;;;;;;2.13;0.60;;;8.30;95.50;;;;;;10520162;28;20032;-63
2023/03/27 02:18:57;;;;;;;2.25;0.73;;;8.20;95.50;;;;;;10523688;28;20028;-61
2023/03/27 02:24:00;;;;;;;;;;;8.20;95.50;;;;;;10523886;28;20081;-62
2023/03/27 02:29:04;;;;;;;1.65;0.40;;;8.20;95.40;;;;;;10522615;28;19915;-63
2023/03/27 02:34:20;;;;;;;2.88;0.75;;;8.20;95.50;;;;;;10529699;28;20308;-62
2023/03/27 02:39:47;;;;;;;4.35;0.60;;;8.20;95.80;;;;;;10520482;28;20060;-62
2023/03/27 02:45:39;;;;;;;1.42;0.40;;;8.20;95.50;;;;;;10520765;28;20051;-62
2023/03/27 02:50:48;;;;;;;1.92;0.65;;;8.20;95.50;;;;;;10492509;28;20479;-63
2023/03/27 02:55:53;;;;;;;2.05;0.40;;;8.20;95.50;;;;;;10523005;28;20043;-61
2023/03/27 03:00:54;;;;;;;1.05;0.50;;;8.20;95.50;;;;;;10522785;28;20093;-63
2023/03/27 03:05:55;;;;;;;1.55;0.80;;;8.20;95.60;;;;;;10524630;28;20107;-62
2023/03/27 03:11:09;;;;;;;1.13;0.40;;;8.20;95.60;;;;;;10523925;28;20035;-63
2023/03/27 03:16:10;;;;;;;2.22;0.60;;;8.10;95.50;;;;;;10528068;28;20080;-63
2023/03/27 03:21:10;;;;;;;2.10;0.65;;;8.10;95.60;;;;;;10523733;28;20220;-63
2023/03/27 03:26:12;;;;;;;2.35;0.60;;;8.20;95.60;;;;;;10526618;28;20126;-62
2023/03/27 03:31:14;;;;;;;1.27;0.40;;;8.10;95.60;;;;;;10524449;28;20016;-61
2023/03/27 03:36:14;;;;;;;1.10;0.40;;;8.10;95.60;;;;;;10522879;28;20098;-62
2023/03/27 03:41:15;;;;;;;1.95;0.60;;;8.10;95.60;;;;;;10526488;28;20117;-62
2023/03/27 03:46:16;;;;;;;1.45;0.43;;;8.10;95.60;;;;;;10522411;28;20032;-62
2023/03/27 03:51:16;;;;;;;3.15;0.47;;;8.10;95.60;;;;;;10520651;28;20034;-62
2023/03/27 03:56:17;;;;;;;4.88;0.50;;;8.10;95.60;;;;;;10518835;28;20028;-62
2023/03/27 04:01:19;;;;;;;2.70;0.30;;;8.10;95.60;;;;;;10521346;28;20020;-63
2023/03/27 04:06:20;;;;;;;2.17;0.50;;;8.10;95.60;;;;;;10518984;28;20044;-62
2023/03/27 04:11:20;;;;;;;1.35;0.50;;;8.00;95.60;;;;;;10521852;28;20023;-62
2023/03/27 04:16:21;;;;;;;1.50;0.40;;;8.10;95.70;;;;;;10522167;28;20466;-63
2023/03/27 04:21:25;;;;;;;1.02;0.50;;;8.00;95.70;;;;;;10523479;28;20023;-61
2023/03/27 04:26:26;;;;;;;0.95;0.32;;;8.00;95.70;;;;;;10519325;28;20224;-62
2023/03/27 04:31:29;;;;;;;1.25;0.30;;;8.00;95.70;;;;;;10521690;28;20388;-62
2023/03/27 04:36:29;;;;;;;0.88;0.32;;;8.00;95.70;;;;;;10513358;28;20106;-62
2023/03/27 04:41:31;;;;;;;1.20;0.40;;;8.00;95.70;;;;;;10519833;28;20029;-62
2023/03/27 04:46:31;;;;;;;1.35;0.35;;;8.00;95.70;;;;;;10517887;28;20021;-61
2023/03/27 04:51:32;;;;;;;2.03;0.45;;;8.00;95.70;;;;;;10522390;28;20492;-62
2023/03/27 04:56:33;;;;;;;1.30;0.30;;;8.00;95.70;;;;;;10521293;28;20468;-62
2023/03/27 05:01:34;;;;;;;2.30;0.50;;;7.90;95.70;;;;;;10514080;28;20452;-62
2023/03/27 05:06:35;;;;;;;0.75;0.32;;;7.90;95.80;;;;;;10521352;28;20052;-63
2023/03/27 05:11:36;;;;;;;3.65;0.75;;;7.90;95.80;;;;;;10517584;28;20607;-61
2023/03/27 05:16:36;;;;;;;0.95;0.40;;;7.90;95.80;;;;;;10514555;28;20111;-62
2023/03/27 05:21:38;;;;;;;3.10;0.73;;;7.90;95.80;;;;;;10519660;28;20023;-62
2023/03/27 05:26:38;;;;;;;2.13;0.60;;;7.90;95.80;;;;;;10520584;28;20098;-62
2023/03/27 05:31:39;;;;;;;2.00;0.50;;;7.90;95.80;;;;;;10522072;28;20082;-61
2023/03/27 05:36:40;;;;;;;0.90;0.40;;;7.90;95.80;;;;;;10522010;28;20070;-62
2023/03/27 05:41:40;;;;;;;2.70;0.70;;;7.80;95.80;;;;;;10521491;28;20484;-62
2023/03/27 05:46:41;;;;;;;3.63;0.95;;;7.90;95.80;;;;;;10520446;28;20110;-62
2023/03/27 05:51:42;;;;;;;5.65;0.85;;;7.90;95.80;;;;;;10519737;28;20475;-62
2023/03/27 05:56:42;;;;;;;1.15;0.73;;;7.90;95.80;;;;;;10519198;28;20395;-61
2023/03/27 06:01:43;;;;;;;3.65;0.90;;;7.90;95.80;;;;;;10507149;28;20829;-62
2023/03/27 06:06:44;;;;;;;3.10;0.90;;;7.90;95.80;;;;;;10511937;28;20068;-62
2023/03/27 06:11:44;;;;;;;1.65;0.90;;;7.80;95.70;;;;;;10521387;28;20043;-62
2023/03/27 06:16:45;;;;;;;1.35;0.70;;;7.80;95.70;;;;;;10522886;28;20020;-61
2023/03/27 06:21:46;;;;;;;0.88;0.68;;;7.80;95.70;;;;;;10515945;28;20016;-63
2023/03/27 06:26:46;;;;;;;1.95;0.90;;;7.90;95.70;;;;;;10523356;28;20403;-63
2023/03/27 06:31:47;;;;;;;1.60;0.80;;;7.90;95.70;;;;;;10523307;28;20040;-62
2023/03/27 06:36:48;;;;;;;1.25;0.70;;;7.90;95.60;;;;;;10528779;28;20052;-62
2023/03/27 06:41:49;;;;;;;2.40;0.60;;;7.90;95.60;;;;;;10526737;28;20078;-62
2023/03/27 06:46:50;;;;;;;1.25;0.60;;;7.90;95.60;;;;;;10525966;28;20372;-62
2023/03/27 06:51:51;;;;;;;2.13;0.77;;;7.90;95.60;;;;;;10523434;28;20361;-61
2023/03/27 06:56:51;;;;;;;2.10;0.70;;;8.00;95.60;;;;;;10528611;28;20159;-61
2023/03/27 07:01:52;;;;;;;0.90;0.68;;;8.00;95.60;;;;;;10527779;28;20069;-62
2023/03/27 07:06:52;;;;;;;1.90;0.65;;;7.90;95.50;;;;;;10525263;28;20681;-61
2023/03/27 07:11:53;;;;;;;2.75;0.60;;;8.00;95.50;;;;;;10526630;28;20080;-62
2023/03/27 07:16:54;;;;;;;9.77;0.95;;;8.00;95.50;;;;;;10528019;28;20024;-62
2023/03/27 07:21:54;;;;;;;2.00;0.80;;;8.10;95.50;;;;;;10522799;28;20032;-61
2023/03/27 07:26:55;;;;;;;2.15;0.65;;;8.10;95.50;;;;;;10522338;28;20024;-61
2023/03/27 07:31:55;;;;;;;1.90;0.52;;;8.20;95.40;;;;;;10523040;28;20035;-61
2023/03/27 07:36:56;;;;;;;2.13;0.80;;;8.20;95.40;;;;;;10519966;28;20028;-63
2023/03/27 07:41:56;;;;;;;4.82;0.73;;;8.20;95.20;;;;;;10518280;28;20040;-62
2023/03/27 07:46:57;;;;;;;4.57;0.90;;;8.00;95.20;;;;;;10523257;28;20392;-62
2023/03/27 07:51:59;;;;;;;1.73;0.55;;;8.10;95.40;;;;;;10523253;28;20408;-61
2023/03/27 07:57:00;;;;;;;4.63;1.08;;;8.30;95.30;;;;;;10525426;28;20031;-62
2023/03/27 08:02:00;;;;;;;2.80;0.80;;;8.40;95.20;;;;;;10516078;28;20309;-61
2023/03/27 08:07:01;;;;;;;4.57;0.70;;;8.60;95.10;;;;;;10527883;28;20028;-61
2023/03/27 08:12:02;;;;;;;3.50;0.88;;;8.60;95.10;;;;;;10520537;28;20028;-62
2023/03/27 08:17:03;;;;;;;1.60;0.57;;;8.70;95.00;;;;;;10528540;28;20468;-62
2023/03/27 08:22:04;;;;;;;3.88;1.05;;;8.80;95.10;;;;;;10525947;28;20008;-61
2023/03/27 08:27:05;;;;;;;2.88;0.68;;;8.80;95.10;;;;;;10527425;28;20036;-62
2023/03/27 08:32:05;;;;;;;6.47;0.60;;;9.10;95.20;;;;;;10529297;28;20429;-61
2023/03/27 08:37:07;;;;;;;4.57;0.70;;;8.80;95.10;;;;;;10524055;28;20024;-62
2023/03/27 08:42:15;;;;;;;4.10;1.02;;;8.90;95.10;;;;;;10521013;28;20038;-60
2023/03/27 08:47:27;;;;;;;1.33;0.47;;;8.90;95.10;;;;;;10520698;28;20115;-63
2023/03/27 08:52:30;;;;;;;2.83;1.02;;;8.90;95.10;;;;;;10522685;28;20114;-62
2023/03/27 08:57:33;;;;;;;2.97;0.45;;;9.00;95.30;;;;;;10511934;28;20099;-64
2023/03/27 09:02:47;;;;;;;1.80;0.75;;;9.00;95.10;;;;;;10525514;28;20016;-65
2023/03/27 09:07:50;;;;;;;3.85;0.70;;;8.70;94.00;;;;;;10523001;28;20085;-61
2023/03/27 09:13:17;;;;;;;4.07;1.05;;;8.40;94.60;;;;;;10524763;28;20028;-63
2023/03/27 09:18:32;;;;;;;3.22;0.40;;;8.40;94.40;;;;;;10513587;28;20043;-63
2023/03/27 09:23:44;;;;;;;1.13;0.50;;;8.60;94.70;;;;;;10518064;28;20016;-63
2023/03/27 09:28:49;;;;;;;2.35;0.50;;;8.70;94.70;;;;;;10523355;28;20020;-63
2023/03/27 09:33:51;;;;;;;3.97;0.50;;;8.70;94.80;;;;;;10522653;28;20032;-62
2023/03/27 09:38:57;;;;;;;2.08;0.52;;;8.70;94.90;;;;;;10524396;28;20439;-63
2023/03/27 09:44:09;;;;;;;1.75;0.57;;;8.70;94.90;;;;;;10522248;28;20377;-62
2023/03/27 09:49:21;;;;;;;3.90;0.60;;;8.80;94.90;;;;;;10523001;28;20024;-62
2023/03/27 09:54:23;;;;;;;1.38;0.28;;;8.80;95.00;;;;;;10522611;28;20028;-61
2023/03/27 09:59:36;;;;;;;4.07;0.60;;;8.80;95.00;;;;;;10523570;28;20096;-63
2023/03/27 10:04:37;;;;;;;5.80;0.70;;;8.90;95.10;;;;;;10515635;28;20557;-63
2023/03/27 10:09:39;;;;;;;2.47;0.40;;;9.00;95.20;;;;;;10521831;28;20020;-63
2023/03/27 10:14:42;;;;;;;1.38;0.40;;;9.10;95.10;;;;;;10528056;28;20111;-62
2023/03/27 10:19:43;;;;;;;4.40;0.50;;;9.20;95.10;;;;;;10529448;28;20390;-63
2023/03/27 10:24:47;;;;;;;2.45;0.40;;;9.30;95.10;;;;;;10522513;28;20032;-61
2023/03/27 10:29:48;;;;;;;1.60;0.35;;;9.30;95.10;;;;;;10525699;28;20053;-63
2023/03/27 10:34:56;;;;;;;1.27;0.50;;;9.30;95.10;;;;;;10525547;28;20028;-62
2023/03/27 10:40:01;;;;;;;2.20;0.47;;;9.30;95.30;;;;;;10523106;28;20119;-62
2023/03/27 10:45:02;;;;;;;1.52;0.50;;;9.40;95.30;;;;;;10522659;28;20029;-62
2023/03/27 10:50:18;;;;;;;3.05;0.50;;;9.40;95.30;;;;;;10528333;28;20028;-62
2023/03/27 10:55:35;;;;;;;2.83;0.50;;;9.50;95.30;;;;;;10527476;28;20085;-62
2023/03/27 11:00:45;;;;;;;1.50;0.68;;;9.60;95.40;;;;;;10524315;28;20499;-63
2023/03/27 11:05:47;;;;;;;3.22;0.40;;;9.60;95.40;;;;;;10524781;28;20024;-63
2023/03/27 11:10:49;;;;;;;1.60;0.38;;;9.70;95.40;;;;;;10522175;28;20039;-63
2023/03/27 11:16:10;;;;;;;1.70;0.28;;;9.70;95.30;;;;;;10527121;28;20103;-62
2023/03/27 11:21:16;;;;;;;1.92;0.35;;;9.80;95.30;;;;;;10525872;28;20019;-62
2023/03/27 11:26:18;;;;;;;1.20;0.20;;;9.80;95.30;;;;;;10526546;28;20085;-62
2023/03/27 11:31:37;;;;;;;0.60;0.22;;;9.90;95.30;;;;;;10526469;28;20012;-62
2023/03/27 11:36:43;;;;;;;0.77;0.30;;;9.90;95.30;;;;;;10523749;28;20024;-63
2023/03/27 11:41:51;;;;;;;1.70;0.28;;;10.00;95.20;;;;;;10525752;28;20032;-62
2023/03/27 11:47:03;;;;;;;1.80;0.98;;;10.10;95.10;;;;;;10522748;28;20020;-63
2023/03/27 11:52:37;;;;;;;0.50;0.20;;;10.20;95.00;;;;;;10523738;28;20567;-63
2023/03/27 11:57:47;;;;;;;2.67;0.55;;;10.10;95.10;;;;;;10523831;28;20147;-63
2023/03/27 12:03:16;;;;;;;1.83;0.60;;;10.10;95.30;;;;;;10526235;28;20467;-63
2023/03/27 12:08:39;;;;;;;1.95;0.40;;;10.00;95.30;;;;;;10521938;28;20043;-62
2023/03/27 12:13:47;;;;;;;1.45;0.50;;;10.00;95.40;;;;;;10520276;28;20400;-63
2023/03/27 12:19:14;;;;;;;2.03;0.30;;;10.00;95.40;;;;;;10526728;28;20024;-64
2023/03/27 12:24:42;;;;;;;1.65;0.43;;;10.10;95.60;;;;;;10517270;28;20136;-63
2023/03/27 12:29:49;;;;;;;1.73;0.30;;;10.20;95.40;;;;;;10522098;28;20051;-62
2023/03/27 12:34:58;;;;;;;2.60;0.40;;;11.20;95.60;;;;;;10525097;28;20032;-63
2023/03/27 12:39:59;;;;;;;3.85;0.32;;;10.30;95.10;;;;;;10521858;28;20044;-62
2023/03/27 12:45:22;;;;;;;1.50;0.40;;;10.30;95.30;;;;;;10522634;28;20046;-62
2023/03/27 12:50:26;;;;;;;1.20;0.47;;;10.10;94.80;;;;;;10521876;28;20034;-61
2023/03/27 12:55:32;;;;;;;2.80;0.60;;;10.10;95.20;;;;;;10520110;28;20028;-62
2023/03/27 13:00:33;;;;;;;2.15;0.43;;;10.20;95.10;;;;;;10519946;28;20050;-62
2023/03/27 13:05:41;;;;;;;4.97;0.35;;;10.30;95.10;;;;;;10526313;28;20106;-63
2023/03/27 13:11:15;;;;;;;1.63;0.35;;;10.40;95.10;;;;;;10526333;28;20012;-62
2023/03/27 13:16:59;;;;;;;2.40;0.40;;;10.40;95.00;;;;;;10522616;28;20032;-62
2023/03/27 13:22:16;;;;;;;3.40;0.40;;;10.50;95.00;;;;;;10526447;28;20486;-61
2023/03/27 13:27:31;;;;;;;2.20;0.50;;;10.50;95.10;;;;;;10522193;28;20047;-62
2023/03/27 13:32:39;;;;;;;3.08;0.60;;;10.50;95.10;;;;;;10520050;28;20044;-62
2023/03/27 13:37:50;;;;;;;2.37;0.60;;;10.50;95.10;;;;;;10520927;28;20269;-62
2023/03/27 13:43:20;;;;;;;1.27;0.38;;;10.60;95.10;;;;;;10530933;28;20435;-61
2023/03/27 13:48:32;;;;;;;2.92;1.20;;;10.80;95.00;;;;;;10527923;28;20119;-61
2023/03/27 13:54:07;;;;;;;4.22;0.52;;;10.80;95.00;;;;;;10528580;28;20082;-65
2023/03/27 14:00:01;;;;;;;1.42;0.68;;;10.90;93.80;;;;;;10526549;28;20031;-62
2023/03/27 14:05:14;;;;;;;3.70;0.50;;;10.70;94.60;;;;;;10439075;28;20025;-62
2023/03/27 14:10:35;;;;;;;3.97;0.50;;;10.70;95.20;;;;;;10513322;28;20039;-63
2023/03/27 14:15:55;;;;;;;3.47;0.52;;;10.70;95.10;;;;;;10524628;28;20084;-62
2023/03/27 14:21:02;;;;;;;2.92;0.63;;;10.80;95.00;;;;;;10524739;28;20510;-62
2023/03/27 14:26:09;;;;;;;2.40;0.50;;;10.90;95.00;;;;;;10526876;28;20035;-62
2023/03/27 14:31:13;;;;;;;1.98;0.47;;;11.10;94.90;;;;;;10522919;28;20032;-62
2023/03/27 14:36:15;;;;;;;5.35;0.65;;;11.10;94.90;;;;;;10523657;28;20293;-62
2023/03/27 14:41:19;;;;;;;3.38;0.68;;;11.10;95.00;;;;;;10521708;28;20082;-62
2023/03/27 14:46:23;;;;;;;3.80;0.50;;;11.10;95.10;;;;;;10524427;28;20054;-62
2023/03/27 14:51:36;;;;;;;4.55;0.85;;;11.10;95.20;;;;;;10523558;28;20098;-63
2023/03/27 14:56:41;;;;;;;4.90;0.90;;;11.20;95.10;;;;;;10524662;28;20388;-62
2023/03/27 15:01:42;;;;;;;1.10;0.40;;;11.30;95.10;;;;;;10522619;28;20043;-62
2023/03/27 15:06:42;;;;;;;1.75;0.50;;;11.40;95.00;;;;;;10523872;28;20047;-63
2023/03/27 15:11:47;;;;;;;2.47;0.63;;;11.50;94.90;;;;;;10524884;28;20037;-62
2023/03/27 15:17:11;;;;;;;1.65;0.52;;;11.50;95.00;;;;;;10524842;28;20024;-63
2023/03/27 15:22:22;;;;;;;1.35;0.63;;;11.50;95.10;;;;;;10519543;28;20376;-62
2023/03/27 15:27:28;;;;;;;2.83;0.50;;;11.30;95.30;;;;;;10527514;28;20031;-63
2023/03/27 15:32:41;;;;;;;2.47;0.70;;;11.40;95.20;;;;;;10522430;28;20387;-63
2023/03/27 15:37:41;;;;;;;1.90;0.65;;;11.30;95.20;;;;;;10524825;28;20028;-63
2023/03/27 15:42:49;;;;;;;3.13;0.52;;;11.30;95.10;;;;;;10521766;28;20407;-64
2023/03/27 15:48:04;;;;;;;2.63;0.57;;;11.30;94.80;;;;;;10519398;28;20044;-63
2023/03/27 15:53:05;;;;;;;3.88;0.75;;;11.30;94.50;;;;;;10523652;28;20089;-62
2023/03/27 15:58:42;;;;;;;3.40;0.60;;;11.30;94.60;;;;;;10524581;28;20413;-62
2023/03/27 16:03:43;;;;;;;1.42;0.57;;;11.30;94.00;;;;;;10521931;28;20036;-62
2023/03/27 16:08:47;;;;;;;8.00;0.73;;;11.30;94.60;;;;;;10524356;28;20106;-62
2023/03/27 16:13:54;;;;;;;2.15;0.70;;;11.30;94.60;;;;;;10520757;28;20567;-63
2023/03/27 16:19:02;;;;;;;2.38;0.40;;;11.30;94.60;;;;;;10519901;28;20022;-63
2023/03/27 16:24:04;;;;;;;3.85;0.50;;;11.30;94.70;;;;;;10520557;28;20122;-62
2023/03/27 16:29:05;;;;;;;4.03;0.93;;;11.30;94.80;;;;;;10526646;28;20524;-61
2023/03/27 16:34:11;;;;;;;3.50;0.77;;;11.30;94.90;;;;;;10523100;28;20020;-63
2023/03/27 16:39:12;;;;;;;2.55;0.70;;;11.30;94.90;;;;;;10524060;28;20024;-64
2023/03/27 16:44:12;;;;;;;2.60;0.50;;;11.20;95.00;;;;;;10524039;28;20408;-63
2023/03/27 16:49:13;;;;;;;1.95;0.90;;;11.00;94.40;;;;;;10524433;28;20022;-64
2023/03/27 16:54:14;;;;;;;3.65;1.70;;;10.80;94.50;;;;;;10523419;28;20035;-61
2023/03/27 16:59:15;;;;;;;3.15;0.57;;;10.80;94.50;;;;;;10518245;28;20028;-63
2023/03/27 17:04:16;;;;;;;1.25;0.50;;;10.80;94.40;;;;;;10521952;28;20031;-65
2023/03/27 17:09:16;;;;;;;4.00;0.70;;;10.80;94.40;;;;;;10520895;28;20422;-63
2023/03/27 17:14:17;;;;;;;5.53;0.60;;;10.80;94.40;;;;;;10520747;28;20115;-63
2023/03/27 17:19:18;;;;;;;3.20;0.52;;;10.80;94.80;;;;;;10519986;28;20036;-63
2023/03/27 17:24:18;;;;;;;3.17;0.70;;;10.80;94.50;;;;;;10521516;28;20024;-63
2023/03/27 17:29:19;;;;;;;1.15;0.45;;;10.70;94.60;;;;;;10521112;28;20123;-63
2023/03/27 17:34:20;;;;;;;2.17;0.60;;;10.70;94.70;;;;;;10522660;28;20031;-63
2023/03/27 17:39:22;;;;;;;1.95;0.40;;;10.70;94.70;;;;;;10520766;28;20053;-62
2023/03/27 17:44:22;;;;;;;9.48;1.20;;;10.70;94.70;;;;;;10522470;28;20484;-63
2023/03/27 17:49:23;;;;;;;2.05;0.40;;;10.60;94.70;;;;;;10519944;28;20020;-65
2023/03/27 17:54:23;;;;;;;131.60;16.10;;;10.60;94.80;;;;;;10520213;28;20034;-64
2023/03/27 17:59:25;;;;;;;109.30;19.77;;;10.70;94.90;;;;;;10519334;28;20042;-63
2023/03/27 18:04:25;;;;;;;131.85;18.60;;;10.70;94.80;;;;;;10508651;28;20036;-63
2023/03/27 18:09:26;;;;;;;143.35;21.73;;;10.80;94.90;;;;;;10518521;28;20502;-62
2023/03/27 18:14:27;;;;;;;144.25;19.85;;;10.60;95.00;;;;;;10514908;28;20500;-63
2023/03/27 18:19:28;;;;;;;120.78;21.70;;;10.60;95.00;;;;;;10514692;28;20020;-63
2023/03/27 18:24:29;;;;;;;87.90;15.43;;;10.50;95.10;;;;;;10519252;28;20119;-63
2023/03/27 18:29:29;;;;;;;89.43;13.55;;;10.40;95.10;;;;;;10527504;28;20031;-63
2023/03/27 18:34:30;;;;;;;81.15;13.23;;;10.40;95.10;;;;;;10527649;28;20024;-63
2023/03/27 18:39:34;;;;;;;73.68;11.27;;;10.40;95.10;;;;;;10527031;28;20020;-63
2023/03/27 18:44:37;;;;;;;55.60;10.55;;;10.30;95.10;;;;;;10526117;28;20032;-62
2023/03/27 18:49:38;;;;;;;69.53;10.05;;;10.30;95.10;;;;;;10524632;28;20024;-63
2023/03/27 18:54:45;;;;;;;49.13;8.93;;;10.20;95.10;;;;;;10526442;28;21248;-62
2023/03/27 18:59:46;;;;;;;58.90;9.50;;;10.20;95.10;;;;;;10525617;28;20038;-63
2023/03/27 19:04:47;;;;;;;54.10;8.73;;;10.20;95.10;;;;;;10521626;28;20061;-63
2023/03/27 19:09:48;;;;;;;42.28;7.88;;;10.20;95.10;;;;;;10521824;28;20601;-61
2023/03/27 19:14:48;;;;;;;38.70;7.93;;;10.10;95.10;;;;;;10522438;28;20140;-63
2023/03/27 19:19:49;;;;;;;38.80;7.45;;;10.10;95.10;;;;;;10522171;28;20035;-63
2023/03/27 19:24:50;;;;;;;29.00;6.43;;;10.10;95.10;;;;;;10518309;28;20410;-61
2023/03/27 19:29:52;;;;;;;35.95;7.30;;;10.00;95.10;;;;;;10523146;28;20016;-64
2023/03/27 19:34:52;;;;;;;38.53;7.25;;;10.00;95.10;;;;;;10522763;28;20027;-62
2023/03/27 19:39:54;;;;;;;27.08;5.82;;;10.00;95.10;;;;;;10519036;28;20020;-63
2023/03/27 19:44:54;;;;;;;26.50;5.60;;;10.00;95.10;;;;;;10518784;28;20518;-63
2023/03/27 19:49:55;;;;;;;34.28;5.75;;;9.90;95.00;;;;;;10520863;28;20035;-63
2023/03/27 19:54:56;;;;;;;17.55;4.70;;;9.90;95.00;;;;;;10521990;28;20032;-63
2023/03/27 19:59:57;;;;;;;23.42;4.50;;;9.90;95.00;;;;;;10517634;28;20559;-63
2023/03/27 20:04:57;;;;;;;23.25;4.25;;;9.80;95.00;;;;;;10521702;28;20036;-64
2023/03/27 20:09:58;;;;;;;20.13;3.60;;;9.80;95.00;;;;;;10522746;28;20544;-63
2023/03/27 20:14:59;;;;;;;14.07;3.90;;;9.80;95.00;;;;;;10513571;28;20024;-62
2023/03/27 20:19:59;;;;;;;16.05;4.47;;;9.80;95.00;;;;;;10519781;28;20051;-62
2023/03/27 20:25:00;;;;;;;18.20;3.72;;;9.80;95.00;;;;;;10521451;28;20016;-64
2023/03/27 20:30:01;;;;;;;11.70;2.97;;;9.70;95.00;;;;;;10521470;28;20028;-63
2023/03/27 20:35:03;;;;;;;14.77;3.00;;;9.70;95.00;;;;;;10518506;28;20035;-62
2023/03/27 20:40:06;;;;;;;10.73;3.78;;;9.70;95.00;;;;;;10520238;28;20035;-64
2023/03/27 20:45:08;;;;;;;12.55;2.80;;;9.60;94.90;;;;;;10523520;28;20028;-64
2023/03/27 20:50:10;;;;;;;9.55;3.00;;;9.60;94.90;;;;;;10521279;28;20071;-64
2023/03/27 20:55:11;;;;;;;12.45;2.70;;;9.60;95.00;;;;;;10513881;28;20158;-64
2023/03/27 21:00:13;;;;;;;9.95;2.55;;;9.60;95.00;;;;;;10510703;28;20501;-63
2023/03/27 21:05:14;;;;;;;11.77;2.33;;;9.50;94.90;;;;;;10519268;28;20468;-63
2023/03/27 21:10:15;;;;;;;10.90;2.60;;;9.50;95.00;;;;;;10522194;28;20116;-64
2023/03/27 21:15:15;;;;;;;6.90;2.78;;;9.50;95.00;;;;;;10522072;28;20437;-63
2023/03/27 21:20:16;;;;;;;8.18;2.00;;;9.50;94.90;;;;;;10519549;28;20499;-64
2023/03/27 21:25:21;;;;;;;9.45;2.22;;;9.50;94.90;;;;;;10518275;28;20297;-63
2023/03/27 21:30:22;;;;;;;9.45;2.25;;;9.40;94.90;;;;;;10523829;28;20032;-64
2023/03/27 21:35:23;;;;;;;8.85;2.10;;;9.40;95.00;;;;;;10517535;28;20509;-63
2023/03/27 21:40:29;;;;;;;6.05;1.70;;;9.40;95.00;;;;;;10520039;28;20118;-64
2023/03/27 21:45:30;;;;;;;7.05;2.25;;;9.30;95.00;;;;;;10525473;28;20034;-63
2023/03/27 21:50:31;;;;;;;9.38;1.80;;;9.30;95.00;;;;;;10517588;28;20035;-64
2023/03/27 21:55:33;;;;;;;8.60;2.17;;;9.30;95.00;;;;;;10512144;28;20024;-63
2023/03/27 22:00:33;;;;;;;5.32;1.65;;;9.30;95.00;;;;;;10516973;28;20474;-64
2023/03/27 22:05:36;;;;;;;5.38;1.30;;;9.20;95.00;;;;;;10530539;28;20080;-63
2023/03/27 22:10:36;;;;;;;5.65;1.30;;;9.20;95.00;;;;;;10522773;28;20049;-70
2023/03/27 22:15:37;;;;;;;7.22;1.30;;;9.20;95.00;;;;;;10509143;28;20013;-64
2023/03/27 22:20:38;;;;;;;5.70;1.45;;;9.10;95.00;;;;;;10520939;28;20021;-64
2023/03/27 22:25:39;;;;;;;8.82;1.27;;;9.10;95.00;;;;;;10519081;28;20019;-64
2023/03/27 22:30:40;;;;;;;4.25;1.83;;;9.10;95.00;;;;;;10520612;28;20024;-64
2023/03/27 22:35:46;;;;;;;4.78;1.10;;;9.10;95.00;;;;;;10521055;28;20020;-64
2023/03/27 22:40:47;;;;;;;8.18;1.38;;;9.10;95.00;;;;;;10527425;28;20111;-63
2023/03/27 22:45:48;;;;;;;2.35;0.90;;;9.00;95.00;;;;;;10516303;28;20459;-63
2023/03/27 22:50:56;;;;;;;4.45;1.23;;;9.00;95.00;;;;;;10525692;28;20436;-64
2023/03/27 22:55:57;;;;;;;6.15;1.42;;;9.00;95.00;;;;;;10515154;28;20020;-63
2023/03/27 23:00:58;;;;;;;3.05;0.90;;;8.90;95.00;;;;;;10517451;28;20566;-63
2023/03/27 23:05:59;;;;;;;6.30;1.13;;;8.90;95.00;;;;;;10525976;28;20139;-63
2023/03/27 23:11:03;;;;;;;4.53;0.85;;;8.90;95.00;;;;;;10515749;28;20049;-64
2023/03/27 23:16:04;;;;;;;5.07;0.88;;;8.90;95.00;;;;;;10521558;28;20499;-64
2023/03/27 23:21:08;;;;;;;7.45;1.23;;;8.90;95.00;;;;;;10522396;28;20438;-63
2023/03/27 23:26:09;;;;;;;3.00;0.90;;;8.90;95.00;;;;;;10527255;28;20050;-64
2023/03/27 23:31:13;;;;;;;3.47;1.00;;;8.90;95.00;;;;;;10522427;28;20027;-63
2023/03/27 23:36:16;;;;;;;3.28;0.77;;;8.80;95.00;;;;;;10516044;28;20050;-64
2023/03/27 23:41:18;;;;;;;2.67;0.73;;;8.80;95.00;;;;;;10518644;28;20232;-64
2023/03/27 23:46:18;;;;;;;4.03;0.90;;;8.80;95.00;;;;;;10522790;28;20048;-63
2023/03/27 23:51:19;;;;;;;2.33;0.73;;;8.80;95.00;;;;;;10521726;28;20521;-64
2023/03/27 23:56:20;;;;;;;4.65;1.05;;;8.70;95.00;;;;;;10524126;28;20055;-63
